createdAt,value
2018-07-19T00:01:15.080Z,11.50
2018-07-19T00:03:43.195Z,11.50
2018-07-19T00:06:11.317Z,11.40
2018-07-19T00:08:39.436Z,11.40
2018-07-19T00:11:07.565Z,11.20
2018-07-19T00:13:35.709Z,11.50
2018-07-19T00:16:03.861Z,11.50
2018-07-19T00:18:31.978Z,11.50
2018-07-19T00:23:28.011Z,11.50
2018-07-19T00:25:57.124Z,11.60
2018-07-19T00:28:26.206Z,11.70
2018-07-19T00:30:54.324Z,11.70
2018-07-19T00:33:22.594Z,11.80
2018-07-19T00:35:51.256Z,11.80
2018-07-19T00:38:19.398Z,11.80
2018-07-19T00:40:47.520Z,11.70
2018-07-19T00:43:15.642Z,11.70
2018-07-19T00:45:43.753Z,11.60
2018-07-19T00:48:11.877Z,11.50
2018-07-19T00:50:39.986Z,11.50
2018-07-19T00:53:08.112Z,11.50
2018-07-19T00:55:36.249Z,11.50
2018-07-19T00:58:04.360Z,11.40
2018-07-19T01:00:32.485Z,11.40
2018-07-19T01:03:00.684Z,11.40
2018-07-19T01:05:28.841Z,11.40
2018-07-19T01:07:56.966Z,11.30
2018-07-19T01:10:25.073Z,11.30
2018-07-19T01:12:53.205Z,11.30
2018-07-19T01:15:21.312Z,11.20
2018-07-19T01:17:49.429Z,11.20
2018-07-19T01:20:17.609Z,11.20
2018-07-19T01:22:45.728Z,11.10
2018-07-19T01:25:13.852Z,11.10
2018-07-19T01:27:41.958Z,11.00
2018-07-19T01:30:10.081Z,11.00
2018-07-19T01:32:38.202Z,10.90
2018-07-19T01:35:06.438Z,10.90
2018-07-19T01:37:34.553Z,10.80
2018-07-19T01:40:02.668Z,10.80
2018-07-19T01:42:33.660Z,10.80
2018-07-19T01:45:01.798Z,10.80
2018-07-19T01:47:30.085Z,10.70
2018-07-19T01:49:58.226Z,10.60
2018-07-19T01:52:26.376Z,10.70
2018-07-19T01:54:54.543Z,10.60
2018-07-19T01:57:22.671Z,10.50
2018-07-19T01:59:51.096Z,10.60
2018-07-19T02:02:19.592Z,10.80
2018-07-19T02:04:47.849Z,10.60
2018-07-19T02:07:15.989Z,10.60
2018-07-19T02:09:44.142Z,10.70
2018-07-19T02:12:12.289Z,10.70
2018-07-19T02:14:40.438Z,10.80
2018-07-19T02:17:08.566Z,10.80
2018-07-19T02:19:36.684Z,10.80
2018-07-19T02:22:04.890Z,10.70
2018-07-19T02:24:33.018Z,11.00
2018-07-19T02:27:01.145Z,11.00
2018-07-19T02:29:29.281Z,11.00
2018-07-19T02:31:57.397Z,11.00
2018-07-19T02:34:25.533Z,11.30
2018-07-19T02:39:21.540Z,11.10
2018-07-19T02:41:49.648Z,11.10
2018-07-19T02:44:17.770Z,11.10
2018-07-19T02:46:45.905Z,11.10
2018-07-19T02:49:14.142Z,11.10
2018-07-19T02:51:43.164Z,11.10
2018-07-19T02:56:39.687Z,10.90
2018-07-19T02:59:07.805Z,10.80
2018-07-19T03:01:35.918Z,10.70
2018-07-19T03:04:04.100Z,10.70
2018-07-19T03:06:32.265Z,10.60
2018-07-19T03:09:00.317Z,10.50
2018-07-19T03:11:28.436Z,10.30
2018-07-19T03:13:56.561Z,10.20
2018-07-19T03:16:24.693Z,10.10
2018-07-19T03:18:52.834Z,10.00
2018-07-19T03:21:20.978Z,10.00
2018-07-19T03:23:49.121Z,10.00
2018-07-19T03:26:17.261Z,10.00
2018-07-19T03:28:45.397Z,10.00
2018-07-19T03:31:13.517Z,10.00
2018-07-19T03:33:41.650Z,10.00
2018-07-19T03:36:09.793Z,10.00
2018-07-19T03:38:37.949Z,10.00
2018-07-19T03:41:06.484Z,9.90
2018-07-19T03:43:34.604Z,9.80
2018-07-19T03:46:02.787Z,9.80
2018-07-19T03:48:30.938Z,9.80
2018-07-19T03:50:59.097Z,9.80
2018-07-19T03:53:27.238Z,9.80
2018-07-19T03:55:55.401Z,9.80
2018-07-19T03:58:23.589Z,9.70
2018-07-19T04:00:51.841Z,9.70
2018-07-19T04:03:19.970Z,9.80
2018-07-19T04:05:48.109Z,9.90
2018-07-19T04:08:16.245Z,10.00
2018-07-19T04:13:12.413Z,10.30
2018-07-19T04:15:40.586Z,10.60
2018-07-19T04:18:08.733Z,10.90
2018-07-19T04:20:36.913Z,11.10
2018-07-19T04:23:05.045Z,11.20
2018-07-19T04:25:33.186Z,11.30
2018-07-19T04:28:01.316Z,11.50
2018-07-19T04:30:29.450Z,11.50
2018-07-19T04:32:57.597Z,11.70
2018-07-19T04:35:25.729Z,11.90
2018-07-19T04:37:53.865Z,12.10
2018-07-19T04:40:22.021Z,12.30
2018-07-19T04:42:50.198Z,12.50
2018-07-19T04:45:18.359Z,12.60
2018-07-19T04:47:46.527Z,12.70
2018-07-19T04:50:14.674Z,12.90
2018-07-19T04:52:42.811Z,13.10
2018-07-19T04:55:10.970Z,13.20
2018-07-19T04:57:39.174Z,13.40
2018-07-19T05:00:07.356Z,13.60
2018-07-19T05:02:35.489Z,13.80
2018-07-19T05:05:03.666Z,14.00
2018-07-19T05:07:31.787Z,14.20
2018-07-19T05:09:59.909Z,14.30
2018-07-19T05:12:28.042Z,14.50
2018-07-19T05:14:56.185Z,14.70
2018-07-19T05:17:24.317Z,14.80
2018-07-19T05:22:20.448Z,15.00
2018-07-19T05:24:48.585Z,15.20
2018-07-19T05:27:16.806Z,15.30
2018-07-19T05:29:44.958Z,15.30
2018-07-19T05:32:13.101Z,15.30
2018-07-19T05:34:41.260Z,15.40
2018-07-19T05:37:09.369Z,15.40
2018-07-19T05:39:37.508Z,15.60
2018-07-19T05:42:05.687Z,15.60
2018-07-19T05:47:01.761Z,15.90
2018-07-19T05:49:29.921Z,16.00
2018-07-19T05:51:58.049Z,16.20
2018-07-19T05:54:26.193Z,16.30
2018-07-19T05:56:54.327Z,16.40
2018-07-19T05:59:22.780Z,16.50
2018-07-19T06:01:50.929Z,16.50
2018-07-19T06:04:19.065Z,16.50
2018-07-19T06:06:47.188Z,16.60
2018-07-19T06:09:15.309Z,16.90
2018-07-19T06:11:43.445Z,16.80
2018-07-19T06:14:11.552Z,16.80
2018-07-19T06:16:39.684Z,17.00
2018-07-19T06:19:07.813Z,17.10
2018-07-19T06:21:35.952Z,17.20
2018-07-19T06:24:04.086Z,17.20
2018-07-19T06:26:32.212Z,17.30
2018-07-19T06:29:00.337Z,17.30
2018-07-19T06:31:28.525Z,17.50
2018-07-19T06:33:57.681Z,17.60
2018-07-19T06:36:25.849Z,17.70
2018-07-19T06:38:53.978Z,17.80
2018-07-19T06:41:22.119Z,17.90
2018-07-19T06:43:50.285Z,18.10
2018-07-19T06:46:18.416Z,18.10
2018-07-19T06:48:46.550Z,18.30
2018-07-19T06:51:14.698Z,18.50
2018-07-19T06:53:42.846Z,18.40
2018-07-19T06:56:10.976Z,18.60
2018-07-19T06:58:39.101Z,18.80
2018-07-19T07:01:07.275Z,18.90
2018-07-19T07:03:35.463Z,18.90
2018-07-19T07:06:03.593Z,19.10
2018-07-19T07:08:31.725Z,19.10
2018-07-19T07:10:59.860Z,19.20
2018-07-19T07:13:27.980Z,19.10
2018-07-19T07:15:56.100Z,19.10
2018-07-19T07:18:24.216Z,19.10
2018-07-19T07:20:52.332Z,19.20
2018-07-19T07:23:20.448Z,19.20
2018-07-19T07:25:52.329Z,19.30
2018-07-19T07:28:22.588Z,19.40
2018-07-19T07:30:50.656Z,19.60
2018-07-19T07:33:19.417Z,19.70
2018-07-19T07:35:48.299Z,19.90
2018-07-19T07:38:17.292Z,19.90
2018-07-19T07:40:45.453Z,19.90
2018-07-19T07:43:13.577Z,19.90
2018-07-19T07:45:42.138Z,19.80
2018-07-19T07:48:10.285Z,19.70
2018-07-19T07:50:38.404Z,19.80
2018-07-19T07:53:06.545Z,19.90
2018-07-19T07:55:34.652Z,20.00
2018-07-19T07:58:02.772Z,20.20
2018-07-19T08:00:30.933Z,20.10
2018-07-19T08:02:59.017Z,20.00
2018-07-19T08:05:27.140Z,20.00
2018-07-19T08:07:55.251Z,20.00
2018-07-19T08:10:23.385Z,20.00
2018-07-19T08:12:51.533Z,20.20
2018-07-19T08:17:47.541Z,20.10
2018-07-19T08:20:15.751Z,20.20
2018-07-19T08:22:43.878Z,20.20
2018-07-19T08:25:11.992Z,20.30
2018-07-19T08:27:40.125Z,20.30
2018-07-19T08:30:08.235Z,20.60
2018-07-19T08:32:36.413Z,20.60
2018-07-19T08:35:06.236Z,20.60
2018-07-19T08:37:34.336Z,20.50
2018-07-19T08:40:02.455Z,20.60
2018-07-19T08:42:30.609Z,20.50
2018-07-19T08:44:58.725Z,20.60
2018-07-19T08:47:26.848Z,20.70
2018-07-19T08:49:54.952Z,20.80
2018-07-19T08:52:23.057Z,20.80
2018-07-19T08:54:51.169Z,20.80
2018-07-19T08:57:19.308Z,20.80
2018-07-19T08:59:47.412Z,20.70
2018-07-19T09:02:15.559Z,20.80
2018-07-19T09:04:43.692Z,20.80
2018-07-19T09:07:11.809Z,21.10
2018-07-19T09:09:39.927Z,21.30
2018-07-19T09:12:08.025Z,21.30
2018-07-19T09:14:36.145Z,21.20
2018-07-19T09:17:04.274Z,21.20
2018-07-19T09:19:32.463Z,21.20
2018-07-19T09:22:00.512Z,21.10
2018-07-19T09:24:28.624Z,21.20
2018-07-19T09:26:56.750Z,21.50
2018-07-19T09:29:24.873Z,21.60
2018-07-19T09:31:52.985Z,21.40
2018-07-19T09:34:21.121Z,21.40
2018-07-19T09:36:49.236Z,21.60
2018-07-19T09:39:17.353Z,21.80
2018-07-19T09:41:45.485Z,21.80
2018-07-19T09:44:13.601Z,22.10
2018-07-19T09:46:41.733Z,22.50
2018-07-19T09:49:09.869Z,22.50
2018-07-19T09:51:37.982Z,22.20
2018-07-19T09:54:06.117Z,21.90
2018-07-19T09:56:34.225Z,22.10
2018-07-19T09:59:02.337Z,22.10
2018-07-19T10:01:30.461Z,22.10
2018-07-19T10:03:58.576Z,22.20
2018-07-19T10:06:26.682Z,22.10
2018-07-19T10:08:54.793Z,22.20
2018-07-19T10:11:22.904Z,22.20
2018-07-19T10:13:51.013Z,22.30
2018-07-19T10:16:19.157Z,22.40
2018-07-19T10:18:47.292Z,22.50
2018-07-19T10:21:15.414Z,22.50
2018-07-19T10:23:43.614Z,22.90
2018-07-19T10:26:11.769Z,23.10
2018-07-19T10:28:39.940Z,22.80
2018-07-19T10:31:08.060Z,22.60
2018-07-19T10:33:36.191Z,22.60
2018-07-19T10:36:04.313Z,22.70
2018-07-19T10:38:32.453Z,22.60
2018-07-19T10:41:00.594Z,22.40
2018-07-19T10:43:28.726Z,22.50
2018-07-19T10:45:56.859Z,22.40
2018-07-19T10:48:24.970Z,22.50
2018-07-19T10:50:53.100Z,22.70
2018-07-19T10:53:21.213Z,22.70
2018-07-19T10:55:49.344Z,22.70
2018-07-19T10:58:17.460Z,22.80
2018-07-19T11:00:45.577Z,22.70
2018-07-19T11:03:13.698Z,22.70
2018-07-19T11:05:41.816Z,23.10
2018-07-19T11:08:09.953Z,23.20
2018-07-19T11:10:38.093Z,23.30
2018-07-19T11:13:06.242Z,23.20
2018-07-19T11:15:34.377Z,23.20
2018-07-19T11:18:02.494Z,23.50
2018-07-19T11:20:32.011Z,23.60
2018-07-19T11:23:00.230Z,23.50
2018-07-19T11:25:28.501Z,23.30
2018-07-19T11:27:56.664Z,23.30
2018-07-19T11:30:24.788Z,23.40
2018-07-19T11:32:59.669Z,23.10
2018-07-19T11:35:27.789Z,23.10
2018-07-19T11:37:55.913Z,23.20
2018-07-19T11:40:24.054Z,23.30
2018-07-19T11:42:52.168Z,23.30
2018-07-19T11:45:20.312Z,23.40
2018-07-19T11:47:48.584Z,23.50
2018-07-19T11:50:16.773Z,23.30
2018-07-19T11:52:44.897Z,23.30
2018-07-19T11:55:13.102Z,23.40
2018-07-19T11:57:42.258Z,23.60
2018-07-19T12:00:17.361Z,23.70
2018-07-19T12:02:45.551Z,23.80
2018-07-19T12:05:13.773Z,23.80
2018-07-19T12:07:58.894Z,23.70
2018-07-19T12:10:29.133Z,23.70
2018-07-19T12:12:59.357Z,23.70
2018-07-19T12:15:33.092Z,23.50
2018-07-19T12:18:01.353Z,23.40
2018-07-19T12:20:29.544Z,23.50
2018-07-19T12:22:57.815Z,23.30
2018-07-19T12:25:31.274Z,23.30
2018-07-19T12:27:59.468Z,23.80
2018-07-19T12:30:29.656Z,23.80
2018-07-19T12:33:09.378Z,23.80
2018-07-19T12:35:37.515Z,24.00
2018-07-19T12:38:05.778Z,24.20
2018-07-19T12:40:33.857Z,24.20
2018-07-19T12:43:02.731Z,24.20
2018-07-19T12:45:34.462Z,24.50
2018-07-19T12:48:02.808Z,24.70
2018-07-19T12:50:30.973Z,24.70
2018-07-19T12:52:59.196Z,24.90
2018-07-19T12:55:27.412Z,25.00
2018-07-19T13:00:30.117Z,24.50
2018-07-19T13:02:58.717Z,24.40
2018-07-19T13:05:27.334Z,24.40
2018-07-19T13:07:55.542Z,24.60
2018-07-19T13:10:23.694Z,24.60
2018-07-19T13:12:51.848Z,24.40
2018-07-19T13:15:19.970Z,24.60
2018-07-19T13:17:48.120Z,24.40
2018-07-19T13:20:16.266Z,24.40
2018-07-19T13:22:44.462Z,24.50
2018-07-19T13:25:17.146Z,24.70
2018-07-19T13:27:45.305Z,24.60
2018-07-19T13:30:13.457Z,24.70
2018-07-19T13:32:41.591Z,24.70
2018-07-19T13:37:37.740Z,24.70
2018-07-19T13:40:05.930Z,24.50
2018-07-19T13:42:35.162Z,24.50
2018-07-19T13:45:03.608Z,24.90
2018-07-19T13:47:31.795Z,24.90
2018-07-19T13:50:04.660Z,24.80
2018-07-19T13:52:44.397Z,24.70
2018-07-19T13:55:12.549Z,24.70
2018-07-19T13:57:40.645Z,24.40
2018-07-19T14:00:15.789Z,23.90
2018-07-19T14:02:43.945Z,23.70
2018-07-19T14:05:12.068Z,23.80
2018-07-19T14:07:40.195Z,23.80
2018-07-19T14:10:09.040Z,23.80
2018-07-19T14:12:37.153Z,23.70
2018-07-19T14:15:05.906Z,23.40
2018-07-19T14:17:34.032Z,23.30
2018-07-19T14:20:02.206Z,23.30
2018-07-19T14:22:30.356Z,23.20
2018-07-19T14:24:58.547Z,23.30
2018-07-19T14:27:26.675Z,23.10
2018-07-19T14:29:54.806Z,23.20
2018-07-19T14:32:22.909Z,23.30
2018-07-19T14:34:51.053Z,23.40
2018-07-19T14:37:20.201Z,23.40
2018-07-19T14:39:50.555Z,23.30
2018-07-19T14:42:18.873Z,23.30
2018-07-19T14:44:47.020Z,23.20
2018-07-19T14:47:15.138Z,23.30
2018-07-19T14:49:43.329Z,23.40
2018-07-19T14:52:11.506Z,23.40
2018-07-19T14:54:39.637Z,23.70
2018-07-19T14:57:07.753Z,23.80
2018-07-19T14:59:36.784Z,23.70
2018-07-19T15:07:29.063Z,23.70
2018-07-19T15:09:59.252Z,23.60
2018-07-19T15:12:31.454Z,23.60
2018-07-19T15:14:59.628Z,23.60
2018-07-19T15:17:42.005Z,23.50
2018-07-19T15:20:14.593Z,23.40
2018-07-19T15:22:46.448Z,23.30
2018-07-19T15:25:15.625Z,23.30
2018-07-19T15:27:48.776Z,23.40
2018-07-19T15:30:17.538Z,23.30
2018-07-19T15:35:41.823Z,23.30
2018-07-19T15:38:15.240Z,23.20
2018-07-19T15:40:43.401Z,23.20
2018-07-19T15:43:16.053Z,23.10
2018-07-19T15:46:03.959Z,23.10
2018-07-19T15:48:33.089Z,23.10
2018-07-19T15:51:08.898Z,23.00
2018-07-19T15:53:43.110Z,23.20
2018-07-19T15:56:31.054Z,23.20
2018-07-19T16:02:02.731Z,23.20
2018-07-19T16:04:32.966Z,23.30
2018-07-19T16:07:01.159Z,23.40
2018-07-19T16:09:45.402Z,23.40
2018-07-19T16:12:15.572Z,23.30
2018-07-19T16:14:49.420Z,23.20
2018-07-19T16:17:20.560Z,23.20
2018-07-19T16:20:05.177Z,23.20
2018-07-19T16:22:33.297Z,23.20
2018-07-19T16:25:13.790Z,23.20
2018-07-19T16:27:50.003Z,23.10
2018-07-19T16:30:18.115Z,22.90
2018-07-19T16:32:46.293Z,22.90
2018-07-19T16:35:14.473Z,22.90
2018-07-19T16:37:42.602Z,22.80
2018-07-19T16:40:10.739Z,22.70
2018-07-19T16:42:38.882Z,22.80
2018-07-19T16:45:07.017Z,22.70
2018-07-19T16:47:35.157Z,22.60
2018-07-19T16:50:05.293Z,22.60
2018-07-19T16:52:38.641Z,22.60
2018-07-19T16:55:06.997Z,22.60
2018-07-19T16:57:35.152Z,22.70
2018-07-19T17:00:03.282Z,22.70
2018-07-19T17:02:31.433Z,22.60
2018-07-19T17:04:59.554Z,22.50
2018-07-19T17:07:27.678Z,22.50
2018-07-19T17:09:59.513Z,22.60
2018-07-19T17:12:32.108Z,22.60
2018-07-19T17:15:00.249Z,22.40
2018-07-19T17:17:28.381Z,22.30
2018-07-19T17:19:56.545Z,22.30
2018-07-19T17:22:24.797Z,22.30
2018-07-19T17:24:52.958Z,22.20
2018-07-19T17:29:49.081Z,22.20
2018-07-19T17:32:17.268Z,22.10
2018-07-19T17:34:46.330Z,22.10
2018-07-19T17:37:14.612Z,22.10
2018-07-19T17:39:42.930Z,22.10
2018-07-19T17:42:11.154Z,22.20
2018-07-19T17:44:39.438Z,22.20
2018-07-19T17:47:07.613Z,22.00
2018-07-19T17:49:39.609Z,22.00
2018-07-19T17:52:11.262Z,21.90
2018-07-19T17:54:39.551Z,21.90
2018-07-19T17:57:07.903Z,21.80
2018-07-19T17:59:36.147Z,21.70
2018-07-19T18:02:04.282Z,21.80
2018-07-19T18:04:32.465Z,21.80
2018-07-19T18:07:00.670Z,21.90
2018-07-19T18:09:29.644Z,21.80
2018-07-19T18:11:58.802Z,21.60
2018-07-19T18:14:27.031Z,21.50
2018-07-19T18:16:55.463Z,21.40
2018-07-19T18:19:27.353Z,21.30
2018-07-19T18:21:55.529Z,21.20
2018-07-19T18:24:23.665Z,21.00
2018-07-19T18:26:51.885Z,20.90
2018-07-19T18:29:20.334Z,20.90
2018-07-19T18:31:48.521Z,21.00
2018-07-19T18:34:17.309Z,21.10
2018-07-19T18:36:45.517Z,21.10
2018-07-19T18:39:13.801Z,21.00
2018-07-19T18:41:42.001Z,20.80
2018-07-19T18:44:10.251Z,20.70
2018-07-19T18:46:38.473Z,20.60
2018-07-19T18:49:06.673Z,20.40
2018-07-19T18:51:34.882Z,20.10
2018-07-19T18:54:03.066Z,20.00
2018-07-19T18:56:31.290Z,19.80
2018-07-19T18:58:59.457Z,19.60
2018-07-19T19:01:27.629Z,19.40
2018-07-19T19:03:56.791Z,19.30
2018-07-19T19:06:25.015Z,19.20
2018-07-19T19:08:53.177Z,19.10
2018-07-19T19:11:21.382Z,18.90
2018-07-19T19:13:49.582Z,18.80
2018-07-19T19:16:17.827Z,18.60
2018-07-19T19:18:46.118Z,18.40
2018-07-19T19:21:14.338Z,18.30
2018-07-19T19:23:43.249Z,18.10
2018-07-19T19:26:11.413Z,17.90
2018-07-19T19:28:39.583Z,17.80
2018-07-19T19:31:07.741Z,17.80
2018-07-19T19:33:35.891Z,17.60
2018-07-19T19:36:04.098Z,17.60
2018-07-19T19:38:32.287Z,17.60
2018-07-19T19:41:00.467Z,17.50
2018-07-19T19:43:28.677Z,17.30
2018-07-19T19:45:56.862Z,17.20
2018-07-19T19:48:25.057Z,17.10
2018-07-19T19:50:59.438Z,17.00
2018-07-19T19:53:27.618Z,17.00
2018-07-19T19:55:55.774Z,16.90
2018-07-19T19:58:23.914Z,16.80
2018-07-19T20:00:52.129Z,16.80
2018-07-19T20:03:20.301Z,16.80
2018-07-19T20:05:48.532Z,16.70
2018-07-19T20:08:16.720Z,16.70
2018-07-19T20:10:44.908Z,16.70
2018-07-19T20:13:13.122Z,16.70
2018-07-19T20:15:41.327Z,16.70
2018-07-19T20:18:09.623Z,16.70
2018-07-19T20:20:37.843Z,16.60
2018-07-19T20:23:06.102Z,16.60
2018-07-19T20:25:34.297Z,16.50
2018-07-19T20:28:02.490Z,16.50
2018-07-19T20:30:30.714Z,16.60
2018-07-19T20:32:58.905Z,16.60
2018-07-19T20:35:27.118Z,16.70
2018-07-19T20:37:55.341Z,16.70
2018-07-19T20:40:24.605Z,16.80
2018-07-19T20:42:52.797Z,16.60
2018-07-19T20:45:21.061Z,16.50
2018-07-19T20:47:49.220Z,16.50
2018-07-19T20:50:17.430Z,16.40
2018-07-19T20:52:45.625Z,16.40
2018-07-19T20:55:13.837Z,16.40
2018-07-19T20:57:41.990Z,16.30
2018-07-19T21:00:10.257Z,16.30
2018-07-19T21:02:38.489Z,16.20
2018-07-19T21:05:06.668Z,16.20
2018-07-19T21:07:34.829Z,16.20
2018-07-19T21:10:03.061Z,16.20
2018-07-19T21:12:31.241Z,16.20
2018-07-19T21:14:59.433Z,16.10
2018-07-19T21:17:27.647Z,16.20
2018-07-19T21:19:56.213Z,16.20
2018-07-19T21:22:24.337Z,16.10
2018-07-19T21:24:52.461Z,16.00
2018-07-19T21:27:20.653Z,16.10
2018-07-19T21:29:48.837Z,16.10
2018-07-19T21:32:19.041Z,16.10
2018-07-19T21:34:47.286Z,16.00
2018-07-19T21:37:15.446Z,15.90
2018-07-19T21:39:43.606Z,15.90
2018-07-19T21:42:11.752Z,15.80
2018-07-19T21:44:39.918Z,15.60
2018-07-19T21:47:11.419Z,15.60
2018-07-19T21:49:39.601Z,15.60
2018-07-19T21:52:07.796Z,15.50
2018-07-19T21:54:35.970Z,15.40
2018-07-19T21:57:04.202Z,15.30
2018-07-19T21:59:32.411Z,15.20
2018-07-19T22:02:00.585Z,15.10
2018-07-19T22:04:28.731Z,15.10
2018-07-19T22:06:56.909Z,15.00
2018-07-19T22:09:25.083Z,14.90
2018-07-19T22:11:53.317Z,14.90
2018-07-19T22:14:21.470Z,14.90
2018-07-19T22:16:49.670Z,14.90
2018-07-19T22:19:18.070Z,14.90
2018-07-19T22:21:49.469Z,15.00
2018-07-19T22:24:17.918Z,15.00
2018-07-19T22:26:45.861Z,15.00
2018-07-19T22:29:14.038Z,15.00
2018-07-19T22:31:42.248Z,15.10
2018-07-19T22:34:10.462Z,15.20
2018-07-19T22:39:31.921Z,15.10
2018-07-19T22:42:02.190Z,15.00
2018-07-19T22:44:30.449Z,15.00
2018-07-19T22:47:04.925Z,14.90
2018-07-19T22:52:44.904Z,15.00
2018-07-19T23:03:45.426Z,14.80
2018-07-19T23:09:08.550Z,14.70
2018-07-19T23:20:14.941Z,14.30
2018-07-19T23:22:48.848Z,14.40
2018-07-19T23:25:16.964Z,14.50
2018-07-19T23:27:45.104Z,14.70
2018-07-19T23:30:13.220Z,14.80
2018-07-19T23:32:41.356Z,15.00
2018-07-19T23:35:09.489Z,15.00
2018-07-19T23:37:39.027Z,15.00
2018-07-19T23:40:26.137Z,14.80
2018-07-19T23:42:59.241Z,14.70
2018-07-19T23:45:32.568Z,14.60
2018-07-19T23:48:00.727Z,14.40
2018-07-19T23:50:28.863Z,14.30
2018-07-19T23:52:56.996Z,14.30
2018-07-19T23:55:25.128Z,14.40
2018-07-19T23:57:53.241Z,14.40
